Time;durP1;ratioP1;P1;durP2;ratioP2;P2;SDS_P1;SDS_P2;PMS_P1;PMS_P2;Temp;Humidity;BMP_temperature;BMP_pressure;BME280_temperature;BME280_humidity;BME280_pressure;Samples;Min_cycle;Max_cycle;Signal;HPM_P1;HPM_P2
2022/09/05 00:02:00;;;;;;;3.95;2.10;;;20.90;68.90;;;;;;5119715;27;20467;-71
2022/09/05 00:04:47;;;;;;;4.38;2.60;;;20.90;69.10;;;;;;5131415;27;21241;-71
2022/09/05 00:07:24;;;;;;;3.92;2.13;;;20.80;69.20;;;;;;5119100;27;20918;-71
2022/09/05 00:10:18;;;;;;;5.20;2.00;;;20.80;69.30;;;;;;5123587;27;20400;-70
2022/09/05 00:12:45;;;;;;;5.45;2.35;;;20.80;69.20;;;;;;5128584;27;20760;-71
2022/09/05 00:15:31;;;;;;;4.40;2.08;;;20.80;69.30;;;;;;5130269;27;20513;-71
2022/09/05 00:18:19;;;;;;;4.32;1.80;;;20.80;69.30;;;;;;5121029;27;20470;-71
2022/09/05 00:21:08;;;;;;;4.50;1.98;;;20.70;69.50;;;;;;5128952;27;20398;-71
2022/09/05 00:23:46;;;;;;;3.47;2.08;;;20.70;69.80;;;;;;5117153;27;20437;-70
2022/09/05 00:26:39;;;;;;;4.38;2.00;;;20.60;69.70;;;;;;5116817;27;20884;-71
2022/09/05 00:29:28;;;;;;;4.93;2.20;;;20.60;69.90;;;;;;5110680;27;20397;-71
2022/09/05 00:32:03;;;;;;;3.72;2.13;;;20.60;70.00;;;;;;5090706;28;20416;-71
2022/09/05 00:34:53;;;;;;;5.63;2.95;;;20.60;70.00;;;;;;5124280;27;20396;-71
2022/09/05 00:37:35;;;;;;;4.65;2.90;;;20.50;70.10;;;;;;5124117;27;20412;-71
2022/09/05 00:40:31;;;;;;;5.32;3.42;;;20.50;70.40;;;;;;5122672;27;20407;-71
2022/09/05 00:43:08;;;;;;;5.38;3.45;;;20.40;70.50;;;;;;5110251;27;20439;-71
2022/09/05 00:45:36;;;;;;;6.88;2.83;;;20.40;71.20;;;;;;5109667;27;20503;-71
2022/09/05 00:48:05;;;;;;;6.05;3.75;;;20.30;70.80;;;;;;5110113;27;20934;-72
2022/09/05 00:50:42;;;;;;;4.30;2.80;;;20.30;70.70;;;;;;5122785;27;20403;-71
2022/09/05 00:53:13;;;;;;;4.53;2.58;;;20.30;70.70;;;;;;5119222;27;20405;-70
2022/09/05 00:55:51;;;;;;;5.18;2.40;;;20.20;70.80;;;;;;5092751;28;20444;-71
2022/09/05 00:58:26;;;;;;;3.77;2.60;;;20.10;71.00;;;;;;5124493;27;20406;-71
2022/09/05 01:00:57;;;;;;;4.30;2.30;;;20.10;70.80;;;;;;5113949;27;20423;-70
2022/09/05 01:03:57;;;;;;;3.58;2.28;;;20.10;71.00;;;;;;5123075;27;21053;-71
2022/09/05 01:06:41;;;;;;;3.80;2.10;;;20.10;71.10;;;;;;5102491;27;20508;-71
2022/09/05 01:09:23;;;;;;;2.75;2.00;;;20.00;71.30;;;;;;5110433;27;20910;-71
2022/09/05 01:12:17;;;;;;;4.88;2.30;;;20.00;71.40;;;;;;5104949;27;20405;-71
2022/09/05 01:15:01;;;;;;;4.45;2.30;;;20.00;71.60;;;;;;5130522;27;20433;-71
2022/09/05 01:18:06;;;;;;;5.53;2.28;;;20.00;71.60;;;;;;5098686;27;20984;-71
2022/09/05 01:20:38;;;;;;;3.90;2.22;;;19.90;71.80;;;;;;5122748;27;20478;-71
2022/09/05 01:23:23;;;;;;;3.90;2.28;;;19.90;71.90;;;;;;5112918;27;20418;-72
2022/09/05 01:26:03;;;;;;;4.60;2.20;;;19.80;71.80;;;;;;5126194;27;20486;-71
2022/09/05 01:28:35;;;;;;;4.03;2.22;;;19.80;71.90;;;;;;5118051;27;20432;-71
2022/09/05 01:31:33;;;;;;;4.80;2.33;;;19.80;71.80;;;;;;5123410;27;20408;-71
2022/09/05 01:34:17;;;;;;;4.30;2.35;;;19.70;72.00;;;;;;5118663;27;20446;-71
2022/09/05 01:37:02;;;;;;;5.00;2.55;;;19.70;71.90;;;;;;5129402;27;20414;-71
2022/09/05 01:39:53;;;;;;;4.45;2.20;;;19.70;72.10;;;;;;5129283;27;20746;-70
2022/09/05 01:42:39;;;;;;;5.13;2.55;;;19.60;72.30;;;;;;5109638;28;20452;-71
2022/09/05 01:45:08;;;;;;;5.28;2.55;;;19.60;72.00;;;;;;5121875;27;20427;-72
2022/09/05 01:48:04;;;;;;;4.78;2.63;;;19.60;72.40;;;;;;5107719;27;20417;-71
2022/09/05 01:51:07;;;;;;;4.45;2.20;;;19.50;72.40;;;;;;5116530;27;20780;-71
2022/09/05 01:53:52;;;;;;;5.75;2.65;;;19.50;72.30;;;;;;5128843;27;20402;-71
2022/09/05 01:56:55;;;;;;;4.93;2.50;;;19.50;72.40;;;;;;5128787;27;20452;-71
2022/09/05 01:59:32;;;;;;;4.05;2.20;;;19.50;72.60;;;;;;5129217;27;20864;-71
2022/09/05 02:02:30;;;;;;;3.40;1.88;;;19.50;72.70;;;;;;5128048;27;20410;-71
2022/09/05 02:04:55;;;;;;;5.10;2.50;;;19.40;72.90;;;;;;5108831;27;20593;-71
2022/09/05 02:07:43;;;;;;;5.05;2.40;;;19.40;73.00;;;;;;5091105;27;20492;-71
2022/09/05 02:10:38;;;;;;;5.32;2.30;;;19.30;73.10;;;;;;5106267;27;20406;-71
2022/09/05 02:13:27;;;;;;;4.82;2.40;;;19.30;73.00;;;;;;5115607;27;20483;-72
2022/09/05 02:16:14;;;;;;;3.88;2.33;;;19.30;74.00;;;;;;5074187;28;20405;-71
2022/09/05 02:19:02;;;;;;;3.80;2.35;;;19.30;73.50;;;;;;5127186;27;20725;-70
2022/09/05 02:21:39;;;;;;;4.25;2.35;;;19.20;73.30;;;;;;5113096;27;20826;-71
2022/09/05 02:24:26;;;;;;;5.15;2.40;;;19.20;73.70;;;;;;5107978;27;20424;-71
2022/09/05 02:27:14;;;;;;;4.40;2.45;;;19.20;73.70;;;;;;5127865;27;20399;-71
2022/09/05 02:29:58;;;;;;;4.13;2.30;;;19.10;73.80;;;;;;5120519;27;20453;-71
2022/09/05 02:32:54;;;;;;;4.03;2.20;;;19.10;73.80;;;;;;5128325;27;20406;-70
2022/09/05 02:35:32;;;;;;;4.85;2.58;;;19.10;74.50;;;;;;5127949;27;20402;-71
2022/09/05 02:38:10;;;;;;;3.70;2.22;;;19.10;74.40;;;;;;5127744;27;20410;-72
2022/09/05 02:40:40;;;;;;;4.28;2.40;;;19.00;74.40;;;;;;5128061;27;20410;-72
2022/09/05 02:43:38;;;;;;;4.68;2.10;;;19.00;74.70;;;;;;5127956;27;20410;-71
2022/09/05 02:46:26;;;;;;;3.15;2.05;;;18.90;74.80;;;;;;5078571;27;20484;-71
2022/09/05 02:48:59;;;;;;;4.03;1.98;;;19.00;74.60;;;;;;5104809;28;20414;-71
2022/09/05 02:51:34;;;;;;;3.45;2.15;;;18.90;75.10;;;;;;5117535;28;20916;-71
2022/09/05 02:54:41;;;;;;;3.97;2.45;;;18.90;75.10;;;;;;5120973;28;20408;-71
2022/09/05 02:57:17;;;;;;;4.30;2.20;;;18.90;75.20;;;;;;5124292;28;20399;-71
2022/09/05 02:59:46;;;;;;;3.72;2.40;;;18.80;75.60;;;;;;5127466;27;20442;-71
2022/09/05 03:02:29;;;;;;;4.80;2.60;;;18.80;75.90;;;;;;5127050;28;20406;-71
2022/09/05 03:05:01;;;;;;;3.40;1.90;;;18.70;75.80;;;;;;5115335;28;20425;-71
2022/09/05 03:07:45;;;;;;;4.45;2.03;;;18.70;75.90;;;;;;5125964;28;20395;-70
2022/09/05 03:10:34;;;;;;;3.58;2.20;;;18.70;75.90;;;;;;5128060;28;20773;-71
2022/09/05 03:13:31;;;;;;;6.85;2.40;;;18.70;76.20;;;;;;5115759;28;20442;-71
2022/09/05 03:16:39;;;;;;;5.05;2.58;;;18.70;76.50;;;;;;5128646;28;20434;-71
2022/09/05 03:19:42;;;;;;;3.80;2.05;;;18.60;76.40;;;;;;5124021;28;20416;-71
2022/09/05 03:22:27;;;;;;;3.63;2.25;;;18.70;76.40;;;;;;5124218;28;20416;-71
2022/09/05 03:25:18;;;;;;;4.17;2.27;;;18.60;76.70;;;;;;5127458;27;20963;-71
2022/09/05 03:28:34;;;;;;;3.28;2.00;;;18.60;76.90;;;;;;5110062;28;20418;-71
2022/09/05 03:31:21;;;;;;;5.15;2.03;;;18.50;77.00;;;;;;5079091;28;20753;-71
2022/09/05 03:34:19;;;;;;;4.10;2.40;;;18.50;77.50;;;;;;5127946;28;20407;-71
2022/09/05 03:37:12;;;;;;;6.47;2.53;;;18.50;77.10;;;;;;5080425;28;20413;-71
2022/09/05 03:40:06;;;;;;;3.60;2.50;;;18.50;77.40;;;;;;5120963;28;20395;-70
2022/09/05 03:42:42;;;;;;;4.15;2.08;;;18.40;77.60;;;;;;5117468;28;20548;-71
2022/09/05 03:45:45;;;;;;;4.90;2.33;;;18.40;77.60;;;;;;5128143;28;20497;-70
2022/09/05 03:48:33;;;;;;;3.53;2.30;;;18.40;77.70;;;;;;5114495;27;20432;-72
2022/09/05 03:51:12;;;;;;;3.58;2.20;;;18.40;77.80;;;;;;5128161;28;20411;-71
2022/09/05 03:54:09;;;;;;;3.58;2.10;;;18.30;77.90;;;;;;5120271;28;20444;-71
2022/09/05 03:57:02;;;;;;;4.10;2.03;;;18.30;78.10;;;;;;5126820;28;20415;-70
2022/09/05 03:59:48;;;;;;;4.43;2.30;;;18.30;77.90;;;;;;5125357;28;20412;-71
2022/09/05 04:02:22;;;;;;;4.70;2.40;;;18.30;78.20;;;;;;5120289;28;20442;-71
2022/09/05 04:05:03;;;;;;;4.32;2.38;;;18.30;78.10;;;;;;5121456;28;20467;-71
2022/09/05 04:07:42;;;;;;;3.97;2.30;;;18.30;78.20;;;;;;5109517;27;20407;-71
2022/09/05 04:10:44;;;;;;;4.45;2.45;;;18.20;78.50;;;;;;5131123;27;20406;-71
2022/09/05 04:13:22;;;;;;;3.58;2.13;;;18.20;78.30;;;;;;5110646;27;20920;-71
2022/09/05 04:16:02;;;;;;;5.70;2.40;;;18.20;78.30;;;;;;5114247;27;20910;-70
2022/09/05 04:18:38;;;;;;;5.25;2.40;;;18.20;78.50;;;;;;5130709;27;20403;-71
2022/09/05 04:21:15;;;;;;;2.85;2.30;;;18.20;78.60;;;;;;5117613;27;20407;-71
2022/09/05 04:23:59;;;;;;;3.17;2.10;;;18.10;78.70;;;;;;5128024;27;20418;-70
2022/09/05 04:26:48;;;;;;;3.70;2.40;;;18.10;78.50;;;;;;5128763;27;20418;-71
2022/09/05 04:29:34;;;;;;;6.07;2.53;;;18.10;78.70;;;;;;5130891;27;20443;-72
2022/09/05 04:32:12;;;;;;;4.28;2.63;;;18.00;78.70;;;;;;5128251;27;20795;-71
2022/09/05 04:35:11;;;;;;;3.28;2.30;;;18.00;78.70;;;;;;5123652;27;20400;-71
2022/09/05 04:37:53;;;;;;;6.53;2.50;;;18.00;78.90;;;;;;5115855;27;20851;-71
2022/09/05 04:40:36;;;;;;;5.40;2.40;;;17.90;78.80;;;;;;5131192;27;20415;-70
2022/09/05 04:43:30;;;;;;;5.28;2.20;;;17.90;79.20;;;;;;5120117;27;20404;-70
2022/09/05 04:46:17;;;;;;;4.20;2.38;;;17.90;79.20;;;;;;5113498;27;20814;-71
2022/09/05 04:48:55;;;;;;;3.88;2.20;;;17.80;79.50;;;;;;5129966;27;20896;-71
2022/09/05 04:51:35;;;;;;;4.15;2.40;;;17.80;79.60;;;;;;5119533;27;20410;-71
2022/09/05 04:54:32;;;;;;;4.50;2.53;;;17.80;79.90;;;;;;5116925;27;20403;-71
2022/09/05 04:57:06;;;;;;;5.37;2.40;;;17.80;79.90;;;;;;5130207;27;20551;-71
2022/09/05 05:00:06;;;;;;;5.35;2.70;;;17.80;80.50;;;;;;5130534;27;20407;-71
2022/09/05 05:02:39;;;;;;;5.85;2.65;;;17.70;80.40;;;;;;5125830;27;20436;-70
2022/09/05 05:05:16;;;;;;;3.90;2.30;;;17.70;80.60;;;;;;5128944;27;20502;-71
2022/09/05 05:07:57;;;;;;;3.97;2.50;;;17.70;80.80;;;;;;5112978;27;20448;-71
2022/09/05 05:10:47;;;;;;;4.03;2.50;;;17.70;81.00;;;;;;5119208;27;20491;-71
2022/09/05 05:13:19;;;;;;;4.10;2.40;;;17.70;81.20;;;;;;5118218;27;20426;-71
2022/09/05 05:15:56;;;;;;;4.63;2.33;;;17.70;81.20;;;;;;5116151;27;21164;-71
2022/09/05 05:18:53;;;;;;;3.80;2.47;;;17.60;81.50;;;;;;5129692;27;20441;-72
2022/09/05 05:21:25;;;;;;;5.05;2.42;;;17.60;81.30;;;;;;5099986;27;20419;-71
2022/09/05 05:23:59;;;;;;;4.82;2.50;;;17.60;81.40;;;;;;5127727;27;20418;-71
2022/09/05 05:26:47;;;;;;;4.43;2.40;;;17.60;81.60;;;;;;5120545;27;20772;-71
2022/09/05 05:29:31;;;;;;;4.27;2.70;;;17.60;81.80;;;;;;5122732;27;20404;-71
2022/09/05 05:32:00;;;;;;;4.80;2.65;;;17.60;81.70;;;;;;5119302;27;20424;-70
2022/09/05 05:34:31;;;;;;;4.43;2.58;;;17.60;81.90;;;;;;5112283;27;20414;-71
2022/09/05 05:37:20;;;;;;;4.93;2.42;;;17.60;81.80;;;;;;5124635;27;20913;-71
2022/09/05 05:40:08;;;;;;;4.38;2.50;;;17.70;82.00;;;;;;5129282;27;20407;-71
2022/09/05 05:42:38;;;;;;;5.30;2.50;;;17.70;82.20;;;;;;5120666;27;20422;-71
2022/09/05 05:45:16;;;;;;;4.00;2.30;;;17.70;82.40;;;;;;5119276;27;20442;-70
2022/09/05 05:47:46;;;;;;;4.15;2.40;;;17.70;82.60;;;;;;5124764;27;20507;-71
2022/09/05 05:50:32;;;;;;;4.05;2.30;;;17.70;83.00;;;;;;5120258;27;20416;-70
2022/09/05 05:53:47;;;;;;;5.80;2.80;;;17.80;82.40;;;;;;5120835;27;20416;-70
2022/09/05 05:56:50;;;;;;;4.80;2.47;;;17.80;82.50;;;;;;5020849;28;20431;-70
2022/09/05 05:59:53;;;;;;;5.78;2.63;;;17.80;82.50;;;;;;5070782;27;20415;-70
2022/09/05 06:02:42;;;;;;;5.13;2.50;;;17.90;82.60;;;;;;5129966;27;20413;-70
2022/09/05 06:05:35;;;;;;;4.00;2.30;;;17.90;82.60;;;;;;5124177;27;20773;-71
2022/09/05 06:08:14;;;;;;;5.22;2.63;;;18.00;82.60;;;;;;5130229;27;20412;-71
2022/09/05 06:10:57;;;;;;;5.22;2.58;;;18.00;82.80;;;;;;5129096;27;20401;-70
2022/09/05 06:13:53;;;;;;;4.65;2.72;;;18.10;82.60;;;;;;5147685;27;20403;-70
2022/09/05 06:16:36;;;;;;;5.47;2.83;;;18.10;82.50;;;;;;5143646;27;20432;-70
2022/09/05 06:19:24;;;;;;;5.40;2.80;;;18.20;82.30;;;;;;5127544;27;21026;-70
2022/09/05 06:22:29;;;;;;;5.63;2.60;;;18.20;82.30;;;;;;5100378;28;20922;-70
2022/09/05 06:25:20;;;;;;;5.78;2.70;;;18.30;82.60;;;;;;5120698;27;20539;-71
2022/09/05 06:28:10;;;;;;;4.97;2.90;;;18.30;82.40;;;;;;5117091;27;20406;-71
2022/09/05 06:31:03;;;;;;;4.53;2.33;;;18.30;82.10;;;;;;5129100;27;20402;-70
2022/09/05 06:33:51;;;;;;;7.18;3.00;;;18.40;82.00;;;;;;5129184;27;20398;-71
2022/09/05 06:36:19;;;;;;;6.95;3.10;;;18.40;81.80;;;;;;5129312;27;20465;-71
2022/09/05 06:39:01;;;;;;;6.47;2.40;;;18.50;81.90;;;;;;5115320;27;20406;-70
2022/09/05 06:41:51;;;;;;;4.95;2.92;;;18.50;82.20;;;;;;5115927;27;20933;-70
2022/09/05 06:44:30;;;;;;;3.83;2.40;;;18.50;81.50;;;;;;5118709;27;20911;-71
2022/09/05 06:47:02;;;;;;;5.68;2.60;;;18.60;81.60;;;;;;5113741;27;20915;-71
2022/09/05 06:49:47;;;;;;;3.67;2.50;;;18.60;81.50;;;;;;5132845;27;20402;-72
2022/09/05 06:52:26;;;;;;;4.70;2.80;;;18.70;80.80;;;;;;5135949;28;20421;-72
2022/09/05 06:55:01;;;;;;;3.65;2.03;;;18.70;80.80;;;;;;5134357;28;20445;-72
2022/09/05 06:57:41;;;;;;;4.57;2.40;;;18.80;81.10;;;;;;5150186;28;20394;-72
2022/09/05 07:00:22;;;;;;;5.18;2.85;;;18.80;80.60;;;;;;5135446;27;20409;-72
2022/09/05 07:02:50;;;;;;;3.58;2.25;;;18.90;80.60;;;;;;5148641;27;20402;-71
2022/09/05 07:05:44;;;;;;;5.80;2.70;;;19.00;80.20;;;;;;5141418;28;20418;-71
2022/09/05 07:08:20;;;;;;;4.03;2.47;;;19.00;80.00;;;;;;5107667;27;20825;-72
2022/09/05 07:11:18;;;;;;;4.15;2.72;;;19.10;79.70;;;;;;5144785;27;20410;-71
2022/09/05 07:14:01;;;;;;;3.88;2.55;;;19.20;79.60;;;;;;5138124;28;20411;-72
2022/09/05 07:16:59;;;;;;;6.55;2.70;;;19.30;79.60;;;;;;5132937;28;20485;-70
2022/09/05 07:19:36;;;;;;;5.00;2.60;;;19.40;79.40;;;;;;5126939;28;20504;-70
2022/09/05 07:22:13;;;;;;;6.45;2.80;;;19.50;78.70;;;;;;5104343;28;20400;-72
2022/09/05 07:24:45;;;;;;;12.37;2.90;;;19.50;78.80;;;;;;5135314;28;20458;-72
2022/09/05 07:27:26;;;;;;;9.33;3.33;;;19.50;78.70;;;;;;5135283;28;20418;-70
2022/09/05 07:29:56;;;;;;;4.05;2.63;;;19.60;78.80;;;;;;5132856;28;20399;-70
2022/09/05 07:32:23;;;;;;;4.47;2.80;;;19.70;78.40;;;;;;5108098;28;20414;-71
2022/09/05 07:34:51;;;;;;;5.47;2.67;;;19.70;78.00;;;;;;5119983;28;20477;-70
2022/09/05 07:37:29;;;;;;;5.30;2.95;;;19.70;78.10;;;;;;5123217;28;20754;-70
2022/09/05 07:39:59;;;;;;;6.33;2.80;;;19.70;78.30;;;;;;5122198;28;20398;-70
2022/09/05 07:42:32;;;;;;;6.78;2.83;;;19.80;78.10;;;;;;5116445;27;20418;-70
2022/09/05 07:45:05;;;;;;;7.13;2.95;;;19.80;78.50;;;;;;5131373;27;20457;-70
2022/09/05 07:47:40;;;;;;;4.60;2.63;;;19.90;78.40;;;;;;5131900;27;20399;-71
2022/09/05 07:50:08;;;;;;;4.57;2.60;;;20.00;78.20;;;;;;5125812;27;20423;-71
2022/09/05 07:52:39;;;;;;;5.47;2.53;;;20.10;78.10;;;;;;5098542;28;20442;-70
2022/09/05 07:55:26;;;;;;;5.53;3.03;;;20.10;78.10;;;;;;5111856;27;20575;-71
2022/09/05 07:57:56;;;;;;;3.95;2.75;;;20.20;78.00;;;;;;5124048;27;20825;-70
2022/09/05 08:00:25;;;;;;;4.13;2.65;;;20.30;78.20;;;;;;5120311;27;20402;-71
2022/09/05 08:02:51;;;;;;;4.57;2.80;;;20.40;77.90;;;;;;5130418;27;20810;-70
2022/09/05 08:05:19;;;;;;;4.53;2.60;;;20.50;78.10;;;;;;5131304;27;20419;-70
2022/09/05 08:07:58;;;;;;;5.97;2.65;;;20.50;77.80;;;;;;5128567;27;20400;-70
2022/09/05 08:10:31;;;;;;;5.32;2.83;;;20.60;77.90;;;;;;5122384;27;20425;-70
2022/09/05 08:13:13;;;;;;;6.28;2.80;;;20.70;77.50;;;;;;5131201;27;20409;-71
2022/09/05 08:15:46;;;;;;;5.60;2.55;;;20.70;77.30;;;;;;5131500;27;20425;-70
2022/09/05 08:18:24;;;;;;;3.92;2.40;;;20.80;77.60;;;;;;5130877;27;20406;-71
2022/09/05 08:21:02;;;;;;;3.58;2.45;;;20.90;77.80;;;;;;5130781;27;20403;-70
2022/09/05 08:24:02;;;;;;;4.13;2.53;;;21.00;76.70;;;;;;5131473;27;20410;-70
2022/09/05 08:26:42;;;;;;;5.85;2.95;;;21.00;77.00;;;;;;5130775;27;20409;-71
2022/09/05 08:29:27;;;;;;;4.38;2.88;;;21.10;76.80;;;;;;5125679;27;20484;-70
2022/09/05 08:32:09;;;;;;;3.70;2.30;;;21.20;76.50;;;;;;5125135;27;20414;-71
2022/09/05 08:34:58;;;;;;;6.43;3.00;;;21.30;76.70;;;;;;5130615;27;20394;-71
2022/09/05 08:37:29;;;;;;;7.35;2.70;;;21.40;76.70;;;;;;5128501;27;20418;-71
2022/09/05 08:40:02;;;;;;;3.40;2.30;;;21.60;76.30;;;;;;5130288;27;20395;-70
2022/09/05 08:42:38;;;;;;;4.57;2.50;;;21.70;76.40;;;;;;5130637;27;20448;-70
2022/09/05 08:45:19;;;;;;;6.57;2.67;;;21.70;76.30;;;;;;5130316;27;20418;-71
2022/09/05 08:48:13;;;;;;;6.35;3.00;;;21.90;76.70;;;;;;5124352;27;20396;-71
2022/09/05 08:50:57;;;;;;;4.38;2.70;;;22.10;75.90;;;;;;5127238;27;20409;-70
2022/09/05 08:53:54;;;;;;;6.90;3.10;;;22.30;75.90;;;;;;5129874;27;20438;-70
2022/09/05 08:56:30;;;;;;;5.25;2.67;;;22.30;75.20;;;;;;5110770;27;20774;-69
2022/09/05 08:59:05;;;;;;;3.95;2.50;;;22.40;76.00;;;;;;5123801;27;20399;-70
2022/09/05 09:01:56;;;;;;;7.68;3.30;;;22.50;75.40;;;;;;5109605;28;20453;-71
2022/09/05 09:04:46;;;;;;;8.35;2.75;;;22.60;74.90;;;;;;5129621;27;20769;-70
2022/09/05 09:07:35;;;;;;;5.85;2.53;;;22.70;75.30;;;;;;5127002;27;21632;-71
2022/09/05 09:10:40;;;;;;;5.30;2.47;;;22.80;74.70;;;;;;5114900;27;20405;-70
2022/09/05 09:13:24;;;;;;;5.15;2.60;;;22.90;75.10;;;;;;5128027;27;20403;-70
2022/09/05 09:15:52;;;;;;;3.50;2.23;;;23.00;74.90;;;;;;5129750;27;20813;-70
2022/09/05 09:18:20;;;;;;;6.55;2.70;;;23.20;75.20;;;;;;5109671;28;20413;-72
2022/09/05 09:21:00;;;;;;;7.32;2.40;;;23.50;74.80;;;;;;5123778;27;20934;-71
2022/09/05 09:23:42;;;;;;;5.63;2.47;;;24.10;73.50;;;;;;5121020;27;20472;-71
2022/09/05 09:26:16;;;;;;;6.07;2.40;;;24.80;73.10;;;;;;5109779;27;20474;-71
2022/09/05 09:29:05;;;;;;;4.30;2.20;;;25.60;71.20;;;;;;5109918;27;20408;-71
2022/09/05 09:31:54;;;;;;;3.88;1.85;;;26.10;69.70;;;;;;5109951;27;20400;-71
2022/09/05 09:34:48;;;;;;;4.97;2.28;;;26.60;69.10;;;;;;5105549;28;20440;-71
2022/09/05 09:37:41;;;;;;;6.67;2.70;;;27.20;67.40;;;;;;5112414;27;20502;-71
2022/09/05 09:40:37;;;;;;;4.10;2.10;;;27.70;66.70;;;;;;5104804;27;20770;-71
2022/09/05 09:43:19;;;;;;;5.47;2.08;;;28.00;66.20;;;;;;5120228;27;20418;-71
2022/09/05 09:46:10;;;;;;;5.00;2.40;;;28.20;64.20;;;;;;5128734;27;20414;-71
2022/09/05 09:49:13;;;;;;;5.85;1.92;;;28.50;65.00;;;;;;5129372;27;20406;-71
2022/09/05 09:51:57;;;;;;;5.95;2.10;;;29.00;64.10;;;;;;5115468;27;20408;-71
2022/09/05 09:54:39;;;;;;;5.57;1.80;;;29.30;63.10;;;;;;5129365;27;20532;-71
2022/09/05 09:57:04;;;;;;;;;;;29.60;62.60;;;;;;5131010;27;20055;-71
2022/09/05 09:59:30;;;;;;;;;;;29.60;61.70;;;;;;5131364;27;20498;-71
2022/09/05 10:02:14;;;;;;;;;;;29.90;61.10;;;;;;5129021;27;19926;-71
2022/09/05 10:04:48;;;;;;;;;;;30.10;61.40;;;;;;5128542;27;20034;-71
2022/09/05 10:07:17;;;;;;;;;;;30.20;60.70;;;;;;5130938;27;19919;-71
2022/09/05 10:09:52;;;;;;;;;;;30.30;61.30;;;;;;5125234;27;20377;-71
2022/09/05 10:12:21;;;;;;;;;;;30.50;60.00;;;;;;5131379;27;19989;-71
2022/09/05 10:15:05;;;;;;;;;;;30.60;58.60;;;;;;5117253;27;20288;-71
2022/09/05 10:17:39;;;;;;;6.32;1.70;;;30.80;59.30;;;;;;5130517;27;19923;-71
2022/09/05 10:20:07;;;;;;;8.00;1.95;;;31.10;58.80;;;;;;5110501;27;20036;-71
2022/09/05 10:23:07;;;;;;;2.95;1.75;;;31.20;59.60;;;;;;5111140;27;20050;-71
2022/09/05 10:25:32;;;;;;;2.63;1.75;;;31.20;58.50;;;;;;5116151;27;20856;-71
2022/09/05 10:28:24;;;;;;;5.97;2.00;;;31.40;60.10;;;;;;5107654;28;20457;-71
2022/09/05 10:31:01;;;;;;;4.13;1.80;;;31.60;59.20;;;;;;5124688;27;20399;-71
2022/09/05 10:33:37;;;;;;;7.00;2.03;;;31.60;59.20;;;;;;5129004;27;20403;-72
2022/09/05 10:36:18;;;;;;;3.58;1.75;;;31.70;59.60;;;;;;5128539;27;20915;-72
2022/09/05 10:38:48;;;;;;;4.15;1.95;;;31.80;58.70;;;;;;5128987;27;21028;-71
2022/09/05 10:41:21;;;;;;;5.97;2.10;;;31.70;58.10;;;;;;5128694;27;20432;-71
2022/09/05 10:44:01;;;;;;;3.58;1.67;;;31.50;58.70;;;;;;5114541;27;20408;-70
2022/09/05 10:46:46;;;;;;;4.30;2.00;;;31.60;59.10;;;;;;5117593;27;20508;-71
2022/09/05 10:49:14;;;;;;;3.70;1.80;;;31.70;59.10;;;;;;5108523;28;20432;-71
2022/09/05 10:52:01;;;;;;;3.95;1.85;;;31.80;59.60;;;;;;5109186;28;20754;-70
2022/09/05 10:54:30;;;;;;;;;;;31.80;57.70;;;;;;5119583;27;20413;-70
2022/09/05 10:57:15;;;;;;;;;;;31.90;58.60;;;;;;5114022;27;19919;-71
2022/09/05 10:59:50;;;;;;;;;;;32.10;58.70;;;;;;5050898;28;19919;-70
2022/09/05 11:02:21;;;;;;;;;;;32.20;58.30;;;;;;5117252;28;19920;-71
2022/09/05 11:05:05;;;;;;;4.60;1.40;;;32.40;58.70;;;;;;5127376;27;19950;-70
2022/09/05 11:07:47;;;;;;;5.05;1.55;;;32.70;58.80;;;;;;5091133;28;20413;-70
2022/09/05 11:10:32;;;;;;;2.37;1.27;;;33.20;57.10;;;;;;5092148;28;20054;-70
2022/09/05 11:13:13;;;;;;;4.45;1.60;;;33.30;57.50;;;;;;5112349;27;20691;-71
2022/09/05 11:15:48;;;;;;;4.45;1.73;;;33.50;56.80;;;;;;5130100;27;20122;-70
2022/09/05 11:18:32;;;;;;;4.03;1.92;;;33.40;56.50;;;;;;5118520;27;20455;-71
2022/09/05 11:21:07;;;;;;;2.53;1.75;;;33.50;56.30;;;;;;5132509;27;20399;-70
2022/09/05 11:23:38;;;;;;;7.43;1.75;;;33.50;55.80;;;;;;5122392;27;20905;-70
2022/09/05 11:26:15;;;;;;;6.80;1.80;;;33.60;56.50;;;;;;5129774;27;20935;-71
2022/09/05 11:28:53;;;;;;;3.78;1.52;;;33.80;56.00;;;;;;5132383;27;20426;-70
2022/09/05 11:31:24;;;;;;;3.88;1.52;;;34.00;56.00;;;;;;5131002;27;20407;-70
2022/09/05 11:34:20;;;;;;;6.90;1.50;;;34.30;55.90;;;;;;5131045;27;20407;-70
2022/09/05 11:36:49;;;;;;;4.63;1.85;;;34.70;55.30;;;;;;5132055;27;20411;-70
2022/09/05 11:39:52;;;;;;;7.47;1.77;;;34.90;54.40;;;;;;5131774;27;20501;-71
2022/09/05 11:42:39;;;;;;;3.88;1.42;;;34.90;54.40;;;;;;5131656;27;20434;-70
2022/09/05 11:45:27;;;;;;;4.25;1.50;;;34.90;54.40;;;;;;5120626;27;21298;-70
2022/09/05 11:48:13;;;;;;;2.70;1.27;;;34.90;53.10;;;;;;5120940;27;20402;-71
2022/09/05 11:50:55;;;;;;;2.00;1.33;;;34.90;54.10;;;;;;5113310;27;20410;-70
2022/09/05 11:53:58;;;;;;;4.00;1.45;;;35.20;54.50;;;;;;5120095;27;20131;-71
2022/09/05 11:56:29;;;;;;;;;;;35.10;53.20;;;;;;5120715;27;20044;-70
2022/09/05 11:59:13;;;;;;;;;;;34.60;53.20;;;;;;5120681;27;19923;-71
2022/09/05 12:01:44;;;;;;;;;;;34.50;53.80;;;;;;5120797;27;19919;-70
2022/09/05 12:04:21;;;;;;;;;;;34.60;53.90;;;;;;5133402;27;20562;-71
2022/09/05 12:07:04;;;;;;;;;;;34.80;53.60;;;;;;5128429;27;19927;-70
2022/09/05 12:09:30;;;;;;;;;;;35.00;54.00;;;;;;5114631;27;20010;-71
2022/09/05 12:12:07;;;;;;;;;;;35.10;53.60;;;;;;5125869;27;19919;-70
2022/09/05 12:14:38;;;;;;;;;;;35.20;53.60;;;;;;5129440;27;19919;-70
2022/09/05 12:17:09;;;;;;;;;;;35.40;52.80;;;;;;5133454;27;19934;-71
2022/09/05 12:19:54;;;;;;;;;;;35.50;51.70;;;;;;5113116;27;19919;-70
2022/09/05 12:22:26;;;;;;;;;;;35.20;52.30;;;;;;5126690;27;19948;-71
2022/09/05 12:24:54;;;;;;;;;;;35.40;53.30;;;;;;5120385;27;19919;-71
2022/09/05 12:27:23;;;;;;;;;;;35.50;52.50;;;;;;5132903;27;20377;-71
2022/09/05 12:29:53;;;;;;;;;;;35.40;51.80;;;;;;5125267;27;20424;-70
2022/09/05 12:32:19;;;;;;;;;;;35.20;52.80;;;;;;5114919;27;20488;-70
2022/09/05 12:34:51;;;;;;;;;;;35.20;52.50;;;;;;5124844;27;20006;-71
2022/09/05 12:37:22;;;;;;;;;;;35.30;52.60;;;;;;5127081;27;19942;-71
2022/09/05 12:39:52;;;;;;;;;;;35.50;52.40;;;;;;5123324;27;19926;-70
2022/09/05 12:42:21;;;;;;;;;;;35.60;51.70;;;;;;5132594;27;19923;-71
2022/09/05 12:45:09;;;;;;;;;;;35.50;51.60;;;;;;5132590;27;20438;-71
2022/09/05 12:48:01;;;;;;;;;;;35.40;52.50;;;;;;5103823;27;19920;-71
2022/09/05 12:50:37;;;;;;;;;;;35.70;52.00;;;;;;5113200;27;20347;-71
2022/09/05 12:53:19;;;;;;;5.88;1.30;;;36.10;52.10;;;;;;5132359;27;20377;-70
2022/09/05 12:55:55;;;;;;;2.22;1.33;;;36.30;52.30;;;;;;5111547;27;20035;-71
2022/09/05 12:58:22;;;;;;;4.47;1.58;;;36.40;52.00;;;;;;5127217;27;20051;-71
2022/09/05 13:00:48;;;;;;;;;;;36.40;51.50;;;;;;5132583;27;20062;-71
2022/09/05 13:03:17;;;;;;;;;;;36.10;49.30;;;;;;5116458;27;20010;-71
2022/09/05 13:05:46;;;;;;;;;;;36.00;51.10;;;;;;5112287;27;20296;-71
2022/09/05 13:08:19;;;;;;;;;;;36.10;50.80;;;;;;5112459;27;19927;-71
2022/09/05 13:10:48;;;;;;;;;;;36.30;50.40;;;;;;5122664;27;19927;-70
2022/09/05 13:13:19;;;;;;;;;;;36.50;50.40;;;;;;5132107;27;20011;-71
2022/09/05 13:15:49;;;;;;;;;;;36.50;49.90;;;;;;5132397;27;19923;-71
2022/09/05 13:18:16;;;;;;;;;;;36.60;49.70;;;;;;5096862;28;20450;-71
2022/09/05 13:20:47;;;;;;;;;;;36.90;50.60;;;;;;5103500;28;19927;-71
2022/09/05 13:23:27;;;;;;;;;;;37.30;49.90;;;;;;5118620;27;19927;-70
2022/09/05 13:25:57;;;;;;;;;;;37.30;49.10;;;;;;5129857;27;20010;-71
2022/09/05 13:28:50;;;;;;;2.95;1.00;;;37.10;49.30;;;;;;5120926;27;20356;-70
2022/09/05 13:31:39;;;;;;;;;;;37.00;49.50;;;;;;5131936;27;20047;-71
2022/09/05 13:34:19;;;;;;;;;;;37.20;49.90;;;;;;5128628;27;20416;-71
2022/09/05 13:36:59;;;;;;;2.75;1.30;;;37.70;49.20;;;;;;5122855;27;19955;-71
2022/09/05 13:39:31;;;;;;;4.43;1.20;;;37.90;49.00;;;;;;5117963;27;20043;-70
2022/09/05 13:42:02;;;;;;;2.83;1.20;;;37.70;48.70;;;;;;5129368;27;20713;-70
2022/09/05 13:44:32;;;;;;;2.08;1.15;;;37.70;48.50;;;;;;5131099;27;20050;-70
2022/09/05 13:47:15;;;;;;;3.95;1.20;;;37.40;48.20;;;;;;5128943;27;20092;-71
2022/09/05 13:49:48;;;;;;;3.78;1.13;;;37.10;48.20;;;;;;5091744;28;20413;-71
2022/09/05 13:52:27;;;;;;;4.43;1.02;;;37.00;48.20;;;;;;5115789;27;20077;-70
2022/09/05 13:55:07;;;;;;;8.65;1.38;;;37.00;48.30;;;;;;5123186;27;20039;-71
2022/09/05 13:57:39;;;;;;;2.40;1.20;;;37.00;47.80;;;;;;5112393;27;20047;-72
2022/09/05 14:03:13;;;;;;;2.70;1.20;;;37.30;48.30;;;;;;5131285;27;20119;-70
2022/09/05 14:05:44;;;;;;;6.95;1.17;;;37.60;47.50;;;;;;5119766;27;20441;-70
2022/09/05 14:08:35;;;;;;;5.25;1.23;;;37.70;47.10;;;;;;5130519;27;20035;-70
2022/09/05 14:11:08;;;;;;;4.88;1.00;;;37.60;47.50;;;;;;5127620;27;20403;-71
2022/09/05 14:14:13;;;;;;;2.88;1.02;;;37.40;47.20;;;;;;5117058;27;20406;-70
2022/09/05 14:16:46;;;;;;;2.75;1.10;;;37.10;46.90;;;;;;5096438;27;20459;-70